Date,TemperatureHighF,TemperatureAvgF,TemperatureLowF,DewpointHighF,DewpointAvgF,DewpointLowF,HumidityHigh,HumidityAvg,HumidityLow,PressureMaxIn,PressureMinIn,WindSpeedMaxMPH,WindSpeedAvgMPH,GustSpeedMaxMPH,PrecipitationSumIn
2013-7-1,80.5,68.6,63.8,69.2,64.8,62.3,97,88,63,29.91,29.73,10,0,10,0.03
2013-7-2,80.0,69.6,63.4,71.3,65.5,62.2,99,87,60,30.07,29.89,7,0,7,0.01
2013-7-3,68.0,64.6,61.6,66.2,63.8,61.3,99,97,90,30.19,30.04,8,0,8,1.69
2013-7-4,72.6,65.3,61.7,71.2,64.8,61.4,100,98,90,30.19,30.09,7,0,7,0.50
2013-7-5,75.0,68.0,63.9,70.2,66.3,63.6,99,94,83,30.20,30.11,7,0,7,0.18
2013-7-6,75.5,69.3,65.2,71.7,67.6,65.0,100,95,78,30.17,30.07,7,0,7,0.99
2013-7-7,76.3,69.8,66.5,71.5,68.1,66.2,100,95,79,30.15,30.07,7,0,7,0.18
2013-7-8,83.9,73.0,66.3,76.3,69.8,66.0,100,90,67,30.18,30.06,4,0,4,0.00
2013-7-9,86.0,73.4,67.1,76.3,70.1,66.5,99,90,60,30.16,30.02,6,0,6,0.53
2013-7-10,83.5,72.7,67.2,76.7,69.8,66.8,100,91,68,30.09,29.91,13,0,13,0.06
2013-7-11,76.5,69.6,68.0,73.2,68.9,67.4,100,98,87,29.95,29.90,1,0,1,0.00
2013-7-12,85.8,75.4,65.8,74.6,68.4,63.5,98,80,61,29.94,29.84,11,0,11,0.00
2013-7-13,79.2,70.4,63.1,69.3,64.7,61.3,96,83,66,30.06,29.92,11,0,11,0.00
2013-7-14,75.4,69.8,66.1,71.2,66.8,63.9,98,91,82,30.21,30.04,13,1,15,0.21
2013-7-15,83.5,74.0,67.2,72.0,67.2,64.3,93,80,62,30.29,30.19,8,0,8,0.00
2013-7-16,89.3,75.6,65.9,75.0,69.0,64.4,97,81,53,30.31,30.18,7,0,7,0.01
2013-7-17,87.8,73.8,66.1,77.8,69.7,63.8,100,88,60,30.30,30.13,7,0,7,0.02
2013-7-18,86.7,70.6,63.4,75.9,67.5,62.8,99,91,65,30.22,30.05,6,0,10,0.77
2013-7-19,87.1,73.3,66.5,75.8,69.8,66.2,100,90,62,30.14,29.95,6,0,6,0.19
2013-7-20,83.6,69.3,67.2,75.2,68.0,66.6,99,96,75,30.02,29.90,1,0,7,0.48
2013-7-21,82.0,70.7,65.8,74.8,68.8,65.5,100,94,75,30.03,29.91,9,0,9,0.06
2013-7-22,81.9,71.2,65.3,72.8,68.0,64.9,100,90,68,29.98,29.82,14,0,14,0.38
2013-7-23,81.4,71.3,64.9,74.2,67.8,64.0,98,89,71,29.92,29.79,13,0,13,0.00
2013-7-24,83.3,73.6,68.2,74.4,68.8,64.9,96,86,65,29.85,29.76,11,0,11,0.01
2013-7-25,84.7,71.4,63.5,72.7,66.0,62.0,99,84,59,30.01,29.83,11,0,11,0.00
2013-7-26,83.8,69.7,60.2,71.9,64.8,59.1,98,85,60,30.09,29.97,10,0,10,0.07
2013-7-27,80.9,69.6,64.0,70.5,65.9,63.3,100,89,58,29.99,29.86,12,0,12,0.00
2013-7-28,78.5,70.0,64.6,70.0,65.4,60.3,98,86,66,30.04,29.87,7,0,7,0.00
2013-7-29,82.8,68.1,59.0,68.4,59.0,50.5,97,75,35,30.18,30.02,11,0,11,0.00
2013-7-30,85.1,66.0,56.5,71.3,60.0,54.8,98,82,53,30.26,30.12,5,0,5,0.01
2013-7-31,73.4,67.8,64.1,70.3,66.0,62.6,98,94,86,30.13,29.96,11,0,11,0.17